createdAt,value
2022-10-09T00:01:32.755Z,101401.54
2022-10-09T00:04:01.504Z,101402.25
2022-10-09T00:06:33.524Z,101401.39
2022-10-09T00:09:03.564Z,101397.55
2022-10-09T00:11:34.237Z,101395.83
2022-10-09T00:14:03.595Z,101391.64
2022-10-09T00:16:32.556Z,101390.95
2022-10-09T00:19:01.382Z,101391.14
2022-10-09T00:21:32.977Z,101392.19
2022-10-09T00:24:03.386Z,101388.50
2022-10-09T00:26:32.445Z,101386.60
2022-10-09T00:29:01.040Z,101387.31
2022-10-09T00:31:29.653Z,101386.80
2022-10-09T00:33:58.059Z,101389.08
2022-10-09T00:36:27.468Z,101387.33
2022-10-09T00:38:56.140Z,101384.89
2022-10-09T00:41:27.268Z,101382.45
2022-10-09T00:43:59.507Z,101379.83
2022-10-09T00:46:34.984Z,101377.39
2022-10-09T00:49:18.499Z,101377.93
2022-10-09T00:51:48.612Z,101371.11
2022-10-09T00:54:21.181Z,101369.37
2022-10-09T00:56:50.867Z,101366.23
2022-10-09T00:59:19.842Z,101363.79
2022-10-09T01:01:48.480Z,101363.81
2022-10-09T01:04:17.117Z,101362.41
2022-10-09T01:07:25.120Z,101361.71
2022-10-09T01:09:59.866Z,101362.25
2022-10-09T01:12:55.221Z,101365.06
2022-10-09T01:15:59.053Z,101363.34
2022-10-09T01:18:47.394Z,101360.89
2022-10-09T01:21:22.501Z,101359.85
2022-10-09T01:23:53.858Z,101359.33
2022-10-09T01:26:40.764Z,101359.50
2022-10-09T01:29:11.609Z,101359.52
2022-10-09T01:31:43.816Z,101359.88
2022-10-09T01:34:15.194Z,101358.13
2022-10-09T01:36:45.249Z,101359.88
2022-10-09T01:39:20.433Z,101363.20
2022-10-09T01:41:51.677Z,101363.22
2022-10-09T01:44:26.479Z,101361.66
2022-10-09T01:46:55.559Z,101358.34
2022-10-09T01:49:59.449Z,101356.42
2022-10-09T01:52:46.907Z,101353.82
2022-10-09T01:55:27.627Z,101349.81
2022-10-09T01:58:22.191Z,101350.34
2022-10-09T02:01:10.842Z,101351.23
2022-10-09T02:03:43.071Z,101352.29
2022-10-09T02:06:14.741Z,101354.05
2022-10-09T02:08:46.238Z,101354.58
2022-10-09T02:11:15.461Z,101355.81
2022-10-09T02:13:46.144Z,101358.79
2022-10-09T02:16:20.916Z,101363.33
2022-10-09T02:18:51.610Z,101367.70
2022-10-09T02:21:26.350Z,101367.71
2022-10-09T02:23:58.109Z,101365.63
2022-10-09T02:26:27.353Z,101366.85
2022-10-09T02:28:57.773Z,101371.92
2022-10-09T02:31:29.855Z,101372.26
2022-10-09T02:34:05.243Z,101380.65
2022-10-09T02:36:33.814Z,101378.55
2022-10-09T02:39:03.597Z,101375.93
2022-10-09T02:41:32.537Z,101376.97
2022-10-09T02:44:02.265Z,101380.09
2022-10-09T02:46:30.933Z,101380.09
2022-10-09T02:48:59.532Z,101379.04
2022-10-09T02:51:28.048Z,101380.62
2022-10-09T02:53:56.590Z,101382.18
2022-10-09T02:56:25.032Z,101380.80
2022-10-09T02:58:53.825Z,101382.72
2022-10-09T03:01:22.483Z,101377.48
2022-10-09T03:03:51.165Z,101376.27
2022-10-09T03:06:25.277Z,101379.23
2022-10-09T03:08:54.551Z,101382.02
2022-10-09T03:11:25.159Z,101381.33
2022-10-09T03:13:54.937Z,101382.20
2022-10-09T03:16:25.414Z,101383.59
2022-10-09T03:18:54.578Z,101383.42
2022-10-09T03:21:27.805Z,101382.90
2022-10-09T03:23:56.794Z,101383.06
2022-10-09T03:26:27.304Z,101383.05
2022-10-09T03:28:56.484Z,101382.89
2022-10-09T03:31:50.378Z,101382.72
2022-10-09T03:34:15.252Z,101386.89
2022-10-09T03:36:43.824Z,101387.23
2022-10-09T03:39:12.336Z,101383.92
2022-10-09T03:41:40.849Z,101384.98
2022-10-09T03:44:09.361Z,101385.83
2022-10-09T03:46:38.024Z,101386.71
2022-10-09T03:49:06.648Z,101387.23
2022-10-09T03:51:35.159Z,101387.39
2022-10-09T03:54:03.600Z,101390.02
2022-10-09T03:56:32.061Z,101387.58
2022-10-09T03:59:00.755Z,101386.87
2022-10-09T04:01:29.270Z,101386.34
2022-10-09T04:03:57.725Z,101385.64
2022-10-09T04:06:26.224Z,101387.56
2022-10-09T04:08:57.005Z,101388.96
2022-10-09T04:11:25.379Z,101390.70
2022-10-09T04:13:53.890Z,101388.79
2022-10-09T04:16:22.470Z,101388.26
2022-10-09T04:18:50.939Z,101390.19
2022-10-09T04:21:19.469Z,101391.42
2022-10-09T04:23:47.992Z,101392.11
2022-10-09T04:26:16.403Z,101393.52
2022-10-09T04:28:45.189Z,101392.66
2022-10-09T04:31:13.834Z,101393.89
2022-10-09T04:33:42.377Z,101396.50
2022-10-09T04:36:10.886Z,101396.33
2022-10-09T04:38:39.317Z,101395.80
2022-10-09T04:41:07.906Z,101393.54
2022-10-09T04:43:36.433Z,101395.81
2022-10-09T04:46:09.489Z,101400.20
2022-10-09T04:48:39.509Z,101404.92
2022-10-09T04:51:08.800Z,101405.97
2022-10-09T04:53:37.978Z,101405.80
2022-10-09T04:56:09.106Z,101409.80
2022-10-09T04:58:37.760Z,101413.65
2022-10-09T05:01:08.976Z,101415.21
2022-10-09T05:03:37.913Z,101415.39
2022-10-09T05:06:09.359Z,101416.26
2022-10-09T05:08:38.905Z,101418.36
2022-10-09T05:11:10.835Z,101419.75
2022-10-09T05:13:41.413Z,101419.57
2022-10-09T05:16:13.206Z,101420.61
2022-10-09T05:18:46.864Z,101421.11
2022-10-09T05:21:16.177Z,101425.30
2022-10-09T05:23:44.787Z,101428.44
2022-10-09T05:26:18.707Z,101428.95
2022-10-09T05:28:47.238Z,101432.42
2022-10-09T05:31:23.215Z,101435.39
2022-10-09T05:33:51.971Z,101430.65
2022-10-09T05:36:21.056Z,101430.31
2022-10-09T05:38:49.780Z,101432.04
2022-10-09T05:41:19.927Z,101434.46
2022-10-09T05:43:49.897Z,101431.80
2022-10-09T05:46:25.634Z,101433.38
2022-10-09T05:49:00.335Z,101433.19
2022-10-09T05:51:34.772Z,101436.15
2022-10-09T05:54:05.084Z,101438.93
2022-10-09T05:56:38.926Z,101441.52
2022-10-09T05:59:09.797Z,101442.39
2022-10-09T06:01:40.817Z,101444.80
2022-10-09T06:04:13.787Z,101445.47
2022-10-09T06:06:42.963Z,101448.20
2022-10-09T06:09:12.217Z,101452.34
2022-10-09T06:11:41.069Z,101453.15
2022-10-09T06:14:12.487Z,101458.52
2022-10-09T06:16:43.163Z,101460.73
2022-10-09T06:19:13.413Z,101462.58
2022-10-09T06:21:42.844Z,101464.41
2022-10-09T06:24:25.788Z,101465.89
2022-10-09T06:26:57.870Z,101465.27
2022-10-09T06:29:26.908Z,101465.87
2022-10-09T06:31:55.328Z,101466.45
2022-10-09T06:34:24.453Z,101467.73
2022-10-09T06:36:53.085Z,101463.07
2022-10-09T06:39:22.768Z,101459.48
2022-10-09T06:41:51.302Z,101460.47
2022-10-09T06:44:31.637Z,101457.88
2022-10-09T06:47:00.152Z,101459.30
2022-10-09T06:49:28.677Z,101459.83
2022-10-09T06:51:57.241Z,101462.52
2022-10-09T06:54:25.619Z,101465.88
2022-10-09T06:56:55.454Z,101466.98
2022-10-09T06:59:23.985Z,101466.89
2022-10-09T07:01:52.544Z,101468.88
2022-10-09T07:04:21.853Z,101473.46
2022-10-09T07:06:50.370Z,101475.22
2022-10-09T07:09:18.846Z,101477.48
2022-10-09T07:11:51.091Z,101481.16
2022-10-09T07:14:19.578Z,101483.29
2022-10-09T07:16:49.176Z,101480.55
2022-10-09T07:19:19.071Z,101479.79
2022-10-09T07:21:49.516Z,101478.08
2022-10-09T07:24:20.815Z,101476.33
2022-10-09T07:26:49.428Z,101476.88
2022-10-09T07:29:19.022Z,101481.13
2022-10-09T07:31:48.295Z,101478.70
2022-10-09T07:34:16.680Z,101476.95
2022-10-09T07:36:45.120Z,101470.45
2022-10-09T07:39:13.564Z,101473.95
2022-10-09T07:41:42.080Z,101475.16
2022-10-09T07:44:12.262Z,101473.77
2022-10-09T07:46:40.684Z,101472.04
2022-10-09T07:49:09.151Z,101473.16
2022-10-09T07:51:37.618Z,101471.44
2022-10-09T07:54:06.115Z,101473.27
2022-10-09T07:56:38.129Z,101470.17
2022-10-09T07:59:14.945Z,101466.36
2022-10-09T08:01:43.645Z,101459.75
2022-10-09T08:04:12.256Z,101459.96
2022-10-09T08:06:40.749Z,101460.46
2022-10-09T08:09:09.426Z,101463.27
2022-10-09T08:11:40.891Z,101466.73
2022-10-09T08:14:16.743Z,101469.87
2022-10-09T08:16:48.254Z,101469.33
2022-10-09T08:19:16.866Z,101469.89
2022-10-09T08:21:45.399Z,101470.77
2022-10-09T08:24:13.992Z,101472.17
2022-10-09T08:26:44.335Z,101472.23
2022-10-09T08:29:14.210Z,101470.34
2022-10-09T08:31:43.000Z,101469.54
2022-10-09T08:34:12.297Z,101470.44
2022-10-09T08:36:40.822Z,101466.02
2022-10-09T08:39:09.469Z,101465.62
2022-10-09T08:41:47.689Z,101468.94
2022-10-09T08:44:33.694Z,101467.10
2022-10-09T08:47:21.440Z,101463.07
2022-10-09T08:49:58.179Z,101461.88
2022-10-09T08:52:38.871Z,101460.48
2022-10-09T08:55:21.916Z,101457.50
2022-10-09T08:57:53.192Z,101455.70
2022-10-09T09:00:25.075Z,101454.99
2022-10-09T09:03:23.067Z,101454.96
2022-10-09T09:06:08.089Z,101451.11
2022-10-09T09:08:48.979Z,101454.95
2022-10-09T09:11:32.441Z,101455.46
2022-10-09T09:14:00.895Z,101452.34
2022-10-09T09:16:37.897Z,101448.94
2022-10-09T09:19:16.774Z,101444.89
2022-10-09T09:21:51.468Z,101441.04
2022-10-09T09:24:25.846Z,101436.40
2022-10-09T09:26:56.692Z,101435.02
2022-10-09T09:29:27.067Z,101433.51
2022-10-09T09:31:59.797Z,101432.23
2022-10-09T09:34:35.010Z,101429.27
2022-10-09T09:37:03.986Z,101423.95
2022-10-09T09:40:24.142Z,101425.04
2022-10-09T09:42:23.478Z,101424.91
2022-10-09T09:45:03.415Z,101428.83
2022-10-09T09:47:45.988Z,101428.95
2022-10-09T09:50:35.218Z,101422.89
2022-10-09T09:53:12.555Z,101420.49
2022-10-09T09:55:41.176Z,101420.73
2022-10-09T09:58:18.094Z,101423.98
2022-10-09T10:00:58.552Z,101424.52
2022-10-09T10:03:27.747Z,101424.55
2022-10-09T10:05:56.786Z,101426.13
2022-10-09T10:08:32.514Z,101429.80
2022-10-09T10:11:06.651Z,101434.12
2022-10-09T10:13:38.992Z,101434.86
2022-10-09T10:16:09.055Z,101433.83
2022-10-09T10:18:40.824Z,101434.02
2022-10-09T10:21:16.818Z,101428.81
2022-10-09T10:24:06.308Z,101425.83
2022-10-09T10:26:40.438Z,101422.03
2022-10-09T10:29:21.438Z,101425.23
2022-10-09T10:32:16.161Z,101422.16
2022-10-09T10:34:57.028Z,101421.95
2022-10-09T10:37:38.951Z,101423.27
2022-10-09T10:40:30.140Z,101423.26
2022-10-09T10:42:59.393Z,101427.34
2022-10-09T10:45:43.136Z,101421.42
2022-10-09T10:48:13.365Z,101421.55
2022-10-09T10:50:51.464Z,101417.49
2022-10-09T10:53:31.963Z,101411.63
2022-10-09T10:56:07.728Z,101411.05
2022-10-09T10:59:01.375Z,101408.95
2022-10-09T11:01:41.892Z,101410.09
2022-10-09T11:04:16.286Z,101407.71
2022-10-09T11:07:13.470Z,101404.20
2022-10-09T11:10:02.857Z,101404.96
2022-10-09T11:12:47.775Z,101406.36
2022-10-09T11:15:21.445Z,101405.69
2022-10-09T11:18:03.436Z,101406.42
2022-10-09T11:21:02.907Z,101409.42
2022-10-09T11:23:40.430Z,101410.36
2022-10-09T11:26:18.762Z,101407.20
2022-10-09T11:28:57.039Z,101407.08
2022-10-09T11:31:40.029Z,101405.89
2022-10-09T11:34:20.721Z,101407.05
2022-10-09T11:36:49.196Z,101404.92
2022-10-09T11:39:23.872Z,101405.48
2022-10-09T11:41:55.186Z,101405.73
2022-10-09T11:44:48.847Z,101407.69
2022-10-09T11:47:23.725Z,101413.34
2022-10-09T11:50:03.868Z,101411.80
2022-10-09T11:52:40.237Z,101406.73
2022-10-09T11:55:38.142Z,101411.88
2022-10-09T11:58:19.035Z,101408.44
2022-10-09T12:00:50.863Z,101408.62
2022-10-09T12:03:36.448Z,101412.20
2022-10-09T12:06:11.598Z,101407.11
2022-10-09T12:08:43.823Z,101410.38
2022-10-09T12:11:16.512Z,101412.51
2022-10-09T12:13:51.745Z,101411.38
2022-10-09T12:16:29.505Z,101410.94
2022-10-09T12:19:00.047Z,101405.89
2022-10-09T12:21:36.522Z,101407.12
2022-10-09T12:24:07.095Z,101411.86
2022-10-09T12:26:36.093Z,101408.52
2022-10-09T12:29:05.600Z,101409.09
2022-10-09T12:31:39.090Z,101408.95
2022-10-09T12:34:19.654Z,101415.28
2022-10-09T12:36:48.054Z,101413.39
2022-10-09T12:39:25.885Z,101414.73
2022-10-09T12:41:57.819Z,101417.14
2022-10-09T12:44:31.243Z,101423.36
2022-10-09T12:47:04.145Z,101416.74
2022-10-09T12:49:32.819Z,101416.90
2022-10-09T12:52:02.150Z,101415.88
2022-10-09T12:54:31.503Z,101420.74
2022-10-09T12:57:01.165Z,101414.61
2022-10-09T12:59:30.002Z,101408.47
2022-10-09T13:02:00.501Z,101414.15
2022-10-09T13:04:34.239Z,101414.50
2022-10-09T13:07:07.693Z,101419.25
2022-10-09T13:09:39.921Z,101421.12
2022-10-09T13:12:16.453Z,101424.51
2022-10-09T13:14:58.122Z,101423.80
2022-10-09T13:17:34.551Z,101422.73
2022-10-09T13:20:25.251Z,101425.61
2022-10-09T13:23:03.738Z,101428.67
2022-10-09T13:25:36.004Z,101429.80
2022-10-09T13:28:05.350Z,101429.70
2022-10-09T13:30:34.051Z,101428.45
2022-10-09T13:33:02.558Z,101427.70
2022-10-09T13:35:31.149Z,101427.27
2022-10-09T13:37:59.738Z,101422.49
2022-10-09T13:40:28.452Z,101428.03
2022-10-09T13:43:02.164Z,101424.16
2022-10-09T13:45:30.590Z,101423.77
2022-10-09T13:47:59.847Z,101421.50
2022-10-09T13:50:28.460Z,101422.39
2022-10-09T13:52:56.898Z,101421.71
2022-10-09T13:55:26.230Z,101424.92
2022-10-09T13:57:55.422Z,101427.42
2022-10-09T14:00:24.207Z,101426.03
2022-10-09T14:02:52.653Z,101425.31
2022-10-09T14:05:21.956Z,101425.83
2022-10-09T14:07:50.634Z,101428.27
2022-10-09T14:10:23.925Z,101426.84
2022-10-09T14:12:52.690Z,101430.13
2022-10-09T14:15:21.356Z,101431.02
2022-10-09T14:17:50.007Z,101434.00
2022-10-09T14:20:19.092Z,101434.22
2022-10-09T14:22:47.813Z,101435.20
2022-10-09T14:25:16.853Z,101435.45
2022-10-09T14:27:45.278Z,101439.09
2022-10-09T14:30:14.057Z,101438.85
2022-10-09T14:32:42.463Z,101440.53
2022-10-09T14:35:13.099Z,101444.04
2022-10-09T14:37:42.514Z,101448.30
2022-10-09T14:40:11.696Z,101452.13
2022-10-09T14:42:40.749Z,101461.48
2022-10-09T14:45:10.308Z,101460.52
2022-10-09T14:47:38.913Z,101464.75
2022-10-09T14:50:08.038Z,101464.10
2022-10-09T14:52:36.764Z,101467.38
2022-10-09T14:55:05.509Z,101468.98
2022-10-09T14:57:35.551Z,101467.33
2022-10-09T15:00:06.279Z,101472.17
2022-10-09T15:02:34.835Z,101478.96
2022-10-09T15:05:04.604Z,101484.38
2022-10-09T15:07:33.960Z,101490.69
2022-10-09T15:10:02.342Z,101488.84
2022-10-09T15:12:30.865Z,101493.35
2022-10-09T15:14:59.344Z,101494.88
2022-10-09T15:17:27.644Z,101497.63
2022-10-09T15:19:56.229Z,101503.97
2022-10-09T15:22:24.675Z,101507.86
2022-10-09T15:24:53.267Z,101510.67
2022-10-09T15:27:21.702Z,101517.88
2022-10-09T15:29:50.235Z,101523.69
2022-10-09T15:32:18.797Z,101528.04
2022-10-09T15:34:47.187Z,101530.27
2022-10-09T15:37:15.695Z,101534.98
2022-10-09T15:39:44.097Z,101540.55
2022-10-09T15:42:12.590Z,101542.41
2022-10-09T15:44:42.263Z,101543.06
2022-10-09T15:47:16.337Z,101545.29
2022-10-09T15:49:45.945Z,101547.58
2022-10-09T15:52:15.117Z,101548.40
2022-10-09T15:54:43.582Z,101551.63
2022-10-09T15:57:12.120Z,101556.92
2022-10-09T15:59:42.675Z,101559.70
2022-10-09T16:02:12.378Z,101561.97
2022-10-09T16:04:41.179Z,101565.57
2022-10-09T16:07:09.503Z,101570.33
2022-10-09T16:09:38.265Z,101576.42
2022-10-09T16:12:06.800Z,101583.53
2022-10-09T16:14:35.276Z,101593.54
2022-10-09T16:17:06.544Z,101600.27
2022-10-09T16:19:37.648Z,101608.45
2022-10-09T16:22:06.349Z,101614.17
2022-10-09T16:24:34.835Z,101622.25
2022-10-09T16:27:03.473Z,101624.34
2022-10-09T16:29:32.044Z,101625.48
2022-10-09T16:32:00.509Z,101623.98
2022-10-09T16:34:29.090Z,101628.27
2022-10-09T16:36:59.875Z,101636.17
2022-10-09T16:39:28.443Z,101640.99
2022-10-09T16:41:58.070Z,101641.09
2022-10-09T16:44:26.560Z,101640.86
2022-10-09T16:46:55.423Z,101643.47
2022-10-09T16:49:25.171Z,101650.79
2022-10-09T16:51:54.145Z,101655.27
2022-10-09T16:54:22.450Z,101658.54
2022-10-09T16:56:50.939Z,101662.02
2022-10-09T16:59:19.513Z,101664.60
2022-10-09T17:01:49.702Z,101664.52
2022-10-09T17:04:18.046Z,101670.31
2022-10-09T17:06:46.747Z,101676.31
2022-10-09T17:09:15.306Z,101679.48
2022-10-09T17:11:44.215Z,101685.96
2022-10-09T17:14:13.032Z,101686.80
2022-10-09T17:16:42.966Z,101689.91
2022-10-09T17:19:11.534Z,101696.56
2022-10-09T17:21:40.202Z,101701.29
2022-10-09T17:24:09.108Z,101701.43
2022-10-09T17:26:37.569Z,101701.39
2022-10-09T17:29:06.028Z,101705.88
2022-10-09T17:31:35.019Z,101709.70
2022-10-09T17:34:04.703Z,101712.63
2022-10-09T17:36:36.468Z,101713.96
2022-10-09T17:39:07.768Z,101715.11
2022-10-09T17:41:36.262Z,101719.11
2022-10-09T17:44:05.189Z,101718.36
2022-10-09T17:46:33.644Z,101718.64
2022-10-09T17:49:02.214Z,101722.63
2022-10-09T17:51:36.367Z,101727.70
2022-10-09T17:54:11.945Z,101732.23
2022-10-09T17:56:41.564Z,101737.92
2022-10-09T17:59:10.351Z,101742.23
2022-10-09T18:01:39.191Z,101743.40
2022-10-09T18:04:07.817Z,101744.87
2022-10-09T18:06:36.372Z,101748.14
2022-10-09T18:09:05.008Z,101746.27
2022-10-09T18:11:33.605Z,101748.11
2022-10-09T18:14:02.222Z,101749.94
2022-10-09T18:16:36.879Z,101750.35
2022-10-09T18:19:12.547Z,101749.52
2022-10-09T18:21:43.070Z,101755.71
2022-10-09T18:24:12.366Z,101760.88
2022-10-09T18:26:41.467Z,101762.67
2022-10-09T18:29:10.103Z,101761.13
2022-10-09T18:31:38.743Z,101764.33
2022-10-09T18:34:07.364Z,101770.17
2022-10-09T18:36:36.321Z,101774.58
2022-10-09T18:39:13.875Z,101777.44
2022-10-09T18:41:43.839Z,101783.65
2022-10-09T18:44:17.736Z,101786.33
2022-10-09T18:46:51.771Z,101793.02
2022-10-09T18:49:25.031Z,101800.62
2022-10-09T18:51:54.047Z,101801.34
2022-10-09T18:54:24.871Z,101798.73
2022-10-09T18:56:53.847Z,101795.45
2022-10-09T18:59:23.322Z,101797.41
2022-10-09T19:01:51.797Z,101802.88
2022-10-09T19:04:20.160Z,101805.73
2022-10-09T19:06:48.628Z,101811.02
2022-10-09T19:09:17.520Z,101814.73
2022-10-09T19:11:47.082Z,101818.45
2022-10-09T19:14:16.187Z,101816.20
2022-10-09T19:16:44.927Z,101816.08
2022-10-09T19:19:13.818Z,101818.23
2022-10-09T19:21:44.182Z,101820.55
2022-10-09T19:24:13.542Z,101816.73
2022-10-09T19:26:42.641Z,101816.61
2022-10-09T19:29:11.387Z,101818.72
2022-10-09T19:31:39.818Z,101821.17
2022-10-09T19:34:08.691Z,101823.44
2022-10-09T19:36:37.303Z,101826.60
2022-10-09T19:39:08.643Z,101829.85
2022-10-09T19:41:38.783Z,101836.02
2022-10-09T19:44:07.330Z,101840.39
2022-10-09T19:46:37.846Z,101847.42
2022-10-09T19:49:07.877Z,101850.94
2022-10-09T19:51:37.443Z,101856.04
2022-10-09T19:54:07.513Z,101862.73
2022-10-09T19:56:36.847Z,101862.04
2022-10-09T19:59:07.953Z,101866.64
2022-10-09T20:01:37.939Z,101866.29
2022-10-09T20:04:09.686Z,101867.35
2022-10-09T20:06:40.967Z,101871.24
2022-10-09T20:09:11.070Z,101876.17
2022-10-09T20:11:39.571Z,101879.16
2022-10-09T20:14:09.947Z,101882.35
2022-10-09T20:16:38.626Z,101879.38
2022-10-09T20:19:07.679Z,101877.98
2022-10-09T20:21:36.423Z,101880.11
2022-10-09T20:24:06.356Z,101883.46
2022-10-09T20:26:35.557Z,101882.08
2022-10-09T20:29:07.341Z,101882.27
2022-10-09T20:31:35.749Z,101885.25
2022-10-09T20:34:04.257Z,101884.05
2022-10-09T20:36:35.764Z,101886.86
2022-10-09T20:39:07.344Z,101891.42
2022-10-09T20:41:37.188Z,101889.69
2022-10-09T20:44:06.516Z,101892.31
2022-10-09T20:46:37.417Z,101897.40
2022-10-09T20:49:11.167Z,101898.81
2022-10-09T20:51:39.898Z,101898.80
2022-10-09T20:54:13.987Z,101901.27
2022-10-09T20:56:44.615Z,101904.26
2022-10-09T20:59:14.420Z,101908.98
2022-10-09T21:01:42.990Z,101906.17
2022-10-09T21:04:12.472Z,101909.16
2022-10-09T21:06:41.827Z,101913.89
2022-10-09T21:09:10.311Z,101916.89
2022-10-09T21:11:40.612Z,101921.80
2022-10-09T21:14:10.067Z,101927.61
2022-10-09T21:16:38.757Z,101930.96
2022-10-09T21:19:07.486Z,101934.50
2022-10-09T21:21:36.144Z,101937.84
2022-10-09T21:24:04.826Z,101940.83
2022-10-09T21:26:36.569Z,101943.80
2022-10-09T21:29:05.902Z,101942.92
2022-10-09T21:31:34.894Z,101943.29
2022-10-09T21:34:03.760Z,101946.66
2022-10-09T21:36:56.227Z,101945.66
2022-10-09T21:39:31.600Z,101941.45
2022-10-09T21:42:00.109Z,101942.70
2022-10-09T21:44:28.541Z,101940.95
2022-10-09T21:46:57.073Z,101943.05
2022-10-09T21:49:27.872Z,101941.67
2022-10-09T21:51:57.178Z,101942.56
2022-10-09T21:54:25.603Z,101944.67
2022-10-09T21:56:54.078Z,101945.02
2022-10-09T21:59:22.493Z,101948.02
2022-10-09T22:01:51.001Z,101946.10
2022-10-09T22:04:19.610Z,101943.48
2022-10-09T22:06:47.967Z,101944.55
2022-10-09T22:09:16.383Z,101946.47
2022-10-09T22:11:45.185Z,101949.64
2022-10-09T22:14:13.769Z,101953.84
2022-10-09T22:16:42.126Z,101962.77
2022-10-09T22:19:10.610Z,101965.77
2022-10-09T22:21:39.065Z,101966.12
2022-10-09T22:24:07.523Z,101965.77
2022-10-09T22:26:36.121Z,101968.60
2022-10-09T22:29:04.597Z,101968.08
2022-10-09T22:31:32.964Z,101974.06
2022-10-09T22:34:02.627Z,101979.84
2022-10-09T22:36:33.784Z,101986.52
2022-10-09T22:39:05.679Z,101991.08
2022-10-09T22:41:36.239Z,101993.00
2022-10-09T22:44:07.121Z,101997.02
2022-10-09T22:46:39.200Z,101994.75
2022-10-09T22:49:11.251Z,101997.55
2022-10-09T22:51:39.754Z,102000.71
2022-10-09T22:54:08.751Z,102002.82
2022-10-09T22:56:40.139Z,102009.30
2022-10-09T22:59:09.898Z,102012.99
2022-10-09T23:01:53.610Z,102011.77
2022-10-09T23:04:23.387Z,102011.42
2022-10-09T23:06:54.550Z,102014.23
2022-10-09T23:09:25.244Z,102018.27
2022-10-09T23:11:54.171Z,102020.55
2022-10-09T23:14:23.110Z,102024.77
2022-10-09T23:16:51.928Z,102023.02
2022-10-09T23:19:20.324Z,102024.95
2022-10-09T23:21:48.827Z,102027.77
2022-10-09T23:24:18.073Z,102027.06
2022-10-09T23:26:50.105Z,102029.52
2022-10-09T23:29:21.021Z,102037.60
2022-10-09T23:31:52.871Z,102037.08
2022-10-09T23:34:21.277Z,102038.32
2022-10-09T23:36:49.686Z,102037.96
2022-10-09T23:39:18.139Z,102041.65
2022-10-09T23:41:46.536Z,102041.13
2022-10-09T23:44:17.836Z,102045.51
2022-10-09T23:46:49.751Z,102051.98
2022-10-09T23:49:18.575Z,102053.57
2022-10-09T23:51:48.006Z,102058.65
2022-10-09T23:54:16.360Z,102064.09
2022-10-09T23:56:44.771Z,102066.16
2022-10-09T23:59:13.190Z,102067.56
